Terminal Aerodrome Forecast
Issued by NWS Sterling, VA

Current Version | Previous Version | Text Only | Print | Product List | Glossary Off
Versions: 1 2 3 4 5 6 7 8 9 10 11 12 13 14 15 16 17 18 19 20 21 22 23 24 25 26 27 28 29

151
FTUS41 KLWX 191638 AAB
TAFIAD
TAF AMD
KIAD 191638Z 1917/2018 19009KT 3SM BR OVC020
     FM192000 19009KT P6SM OVC015
     FM200300 19007KT P6SM SCT008 BKN035 WS020/22040KT
     FM201200 20008KT P6SM BKN250=

USA.gov is the U.S. government's official web portal to all federal, state and local government web resources and services.